Bradshaw Army Airfield Camp Pohakuloa US
ICAO: PHSF
IATA:
Category: Medium
Scheduled Services:

Elevation: 6190 ft
TransAlt. 18000 ft.

Airport Communications:
HONOLULU CNTR:126
ATIS:124.7
CTAF:126.3
RANGE:38.3
PMSV METRO:122.75
HONOLULU RDO:25.54
TWR:41.5

PHSF Zoom In..

If you have problems with the map follow the link
https://www.worldairports.se/pages/airport.php?
ICAO=PHSF

Runways:

(A) RW 09 length 3695 ft width 90 ft
---- / hdg 91

(B) RW 27 length 3695 ft width 90 ft
---- / hdg 271

Location; PHSF
Day. 06 / Time. 13.03 Zulu
* Altimeter: 30.18
* Temperature: 12° c. 53.6°f.
* Wind from: 000° Speed 00 kn.
Dewpoint: 11° c.
Visibility: 1 Statute Miles.
Clouds: Broken 300 ft.
Clouds: Broken 1400 ft.
Clouds: Overcast 3400 ft.
Clouds: Broken 300 ft.
Clouds: Overcast 00 ft.
Conditions: Mist.

PHSF 061303Z AUTO 00000KT 1SM BR BKN003 BKN014 OVC034 12/11 A3018 RMK AO2 BKN003 V OVC SLP109 RVRNO TSNO $


Wind - Calm.

 
 
jpsmedia worldairports.se 2019   terms of use